Time;durP1;ratioP1;P1;durP2;ratioP2;P2;SDS_P1;SDS_P2;PMS_P1;PMS_P2;Temp;Humidity;BMP_temperature;BMP_pressure;BME280_temperature;BME280_humidity;BME280_pressure;Samples;Min_cycle;Max_cycle;Signal;HPM_P1;HPM_P2
2022/06/17 00:01:26;;;;;;;15.48;7.20;;;;;;;16.26;67.04;99627.45;1747062;81;21027;-68
2022/06/17 00:03:53;;;;;;;17.40;7.35;;;;;;;16.26;67.03;99621.89;1751470;81;21041;-67
2022/06/17 00:06:24;;;;;;;12.98;6.83;;;;;;;16.26;67.04;99623.28;1746753;81;21607;-68
2022/06/17 00:08:52;;;;;;;18.60;7.78;;;;;;;16.24;66.78;99620.65;1743298;81;21579;-68
2022/06/17 00:11:33;;;;;;;13.48;7.45;;;;;;;16.19;66.74;99628.64;1746892;81;21554;-68
2022/06/17 00:14:00;;;;;;;14.35;8.28;;;;;;;16.13;66.78;99628.11;1742961;81;21071;-66
2022/06/17 00:16:27;;;;;;;16.97;8.65;;;;;;;16.06;67.03;99629.30;1748572;81;21048;-68
2022/06/17 00:18:57;;;;;;;16.02;9.03;;;;;;;16.06;67.14;99634.86;1745463;81;20997;-66
2022/06/17 00:21:31;;;;;;;20.72;9.63;;;;;;;16.06;67.22;99625.13;1746763;81;21055;-68
2022/06/17 00:23:59;;;;;;;18.20;8.90;;;;;;;16.04;67.30;99628.84;1744694;81;21051;-68
2022/06/17 00:26:27;;;;;;;18.05;9.85;;;;;;;16.02;67.56;99622.85;1745948;81;21492;-67
2022/06/17 00:28:54;;;;;;;13.72;7.95;;;;;;;16.01;67.44;99626.78;1747025;81;21084;-67
2022/06/17 00:31:20;;;;;;;16.35;7.67;;;;;;;16.01;67.53;99629.55;1744395;81;21563;-68
2022/06/17 00:33:49;;;;;;;14.73;7.40;;;;;;;16.01;67.52;99622.03;1742215;81;21543;-66
2022/06/17 00:36:18;;;;;;;17.25;7.50;;;;;;;16.02;67.57;99628.41;1716706;81;21040;-67
2022/06/17 00:38:46;;;;;;;21.93;7.90;;;;;;;15.96;67.94;99626.42;1749401;81;21031;-68
2022/06/17 00:41:32;;;;;;;20.65;8.35;;;;;;;15.91;68.43;99621.94;1748019;81;21004;-68
2022/06/17 00:44:14;;;;;;;18.85;7.45;;;;;;;15.87;68.95;99614.65;1743627;81;21296;-67
2022/06/17 00:46:49;;;;;;;15.80;6.95;;;;;;;15.87;69.01;99607.70;1722105;81;21055;-67
2022/06/17 00:49:48;;;;;;;19.65;8.48;;;;;;;15.90;69.08;99612.58;1744244;81;21043;-68
2022/06/17 00:52:43;;;;;;;17.57;7.62;;;;;;;15.90;69.02;99611.19;1746187;81;21067;-67
2022/06/17 00:55:38;;;;;;;16.32;8.65;;;;;;;15.89;68.89;99613.72;1745768;81;21016;-67
2022/06/17 00:58:16;;;;;;;14.45;8.00;;;;;;;15.86;68.98;99610.27;1743781;81;21122;-68
2022/06/17 01:00:43;;;;;;;16.52;8.40;;;;;;;15.83;68.92;99609.02;1718368;81;21098;-66
2022/06/17 01:03:14;;;;;;;13.95;8.20;;;;;;;15.82;68.86;99606.81;1746851;81;21059;-68
2022/06/17 01:05:51;;;;;;;16.75;7.42;;;;;;;15.82;68.82;99604.61;1714046;81;21099;-67
2022/06/17 01:11:24;;;;;;;15.50;7.80;;;;;;;15.82;68.66;99607.38;1744780;81;21063;-69
2022/06/17 01:13:50;;;;;;;17.87;7.50;;;;;;;15.79;69.01;99596.98;1744663;81;21047;-68
2022/06/17 01:16:23;;;;;;;19.12;7.22;;;;;;;15.76;69.32;99600.47;1749283;81;21056;-67
2022/06/17 01:18:51;;;;;;;13.80;6.67;;;;;;;15.78;69.40;99598.16;1747342;81;21031;-68
2022/06/17 01:21:28;;;;;;;16.87;7.53;;;;;;;15.81;69.48;99599.62;1737019;81;21071;-68
2022/06/17 01:23:55;;;;;;;17.15;7.95;;;;;;;15.85;69.08;99599.72;1749079;81;21689;-68
2022/06/17 01:26:22;;;;;;;17.55;7.55;;;;;;;15.85;68.91;99593.38;1760134;81;21012;-68
2022/06/17 01:28:49;;;;;;;15.88;8.48;;;;;;;15.80;69.20;99591.07;1750680;81;21528;-70
2022/06/17 01:31:18;;;;;;;18.92;8.88;;;;;;;15.81;69.36;99592.67;1731041;81;21091;-68
2022/06/17 01:33:45;;;;;;;18.50;8.35;;;;;;;15.80;69.21;99586.91;1738594;81;21563;-69
2022/06/17 01:36:25;;;;;;;16.32;9.10;;;;;;;15.79;69.02;99582.52;1739841;81;21751;-68
2022/06/17 01:38:56;;;;;;;15.78;8.03;;;;;;;15.76;69.02;99579.04;1733502;81;21012;-69
2022/06/17 01:41:26;;;;;;;21.93;8.58;;;;;;;15.76;69.06;99582.42;1691220;83;21083;-68
2022/06/17 01:43:56;;;;;;;18.32;8.20;;;;;;;15.76;69.00;99584.59;1676536;84;21035;-69
2022/06/17 01:46:33;;;;;;;14.15;8.45;;;;;;;15.77;68.99;99582.06;1676452;84;21598;-68
2022/06/17 01:49:12;;;;;;;12.47;7.67;;;;;;;15.79;68.87;99579.75;1692020;83;21320;-67
2022/06/17 01:51:48;;;;;;;19.82;8.13;;;;;;;15.85;69.02;99585.05;1697169;83;21060;-69
2022/06/17 01:54:29;;;;;;;17.10;8.08;;;;;;;15.83;68.30;99589.57;1719445;81;21059;-67
2022/06/17 01:56:59;;;;;;;20.17;7.80;;;;;;;15.74;68.36;99582.77;1685780;83;21091;-67
2022/06/17 01:59:40;;;;;;;15.28;7.97;;;;;;;15.64;68.55;99577.15;1687954;83;21082;-67
2022/06/17 02:02:13;;;;;;;13.35;7.28;;;;;;;15.62;68.82;99586.98;1691835;83;21568;-68
2022/06/17 02:04:45;;;;;;;12.70;7.53;;;;;;;15.62;69.36;99586.98;1676905;84;21579;-68
2022/06/17 02:07:29;;;;;;;12.40;7.28;;;;;;;15.64;69.42;99580.50;1677320;84;21595;-70
2022/06/17 02:09:56;;;;;;;20.17;8.05;;;;;;;15.62;69.53;99572.52;1689037;83;21062;-68
2022/06/17 02:12:25;;;;;;;13.05;7.50;;;;;;;15.63;69.60;99576.09;1685777;83;21568;-68
2022/06/17 02:14:54;;;;;;;15.32;8.25;;;;;;;15.64;69.76;99575.77;1684983;83;21116;-68
2022/06/17 02:17:28;;;;;;;17.73;8.78;;;;;;;15.68;69.74;99578.05;1686027;83;21017;-68
2022/06/17 02:19:59;;;;;;;14.58;7.87;;;;;;;15.73;69.60;99573.41;1677696;83;21395;-68
2022/06/17 02:22:29;;;;;;;15.90;8.80;;;;;;;15.77;69.69;99567.36;1672439;84;21512;-66
2022/06/17 02:25:00;;;;;;;21.07;8.35;;;;;;;15.79;69.65;99564.47;1672149;84;21071;-68
2022/06/17 02:27:27;;;;;;;15.08;7.87;;;;;;;15.85;69.67;99565.00;1674822;84;21240;-67
2022/06/17 02:29:55;;;;;;;14.23;8.75;;;;;;;15.89;69.78;99562.32;1672182;84;21064;-68
2022/06/17 02:32:23;;;;;;;12.30;6.90;;;;;;;15.93;69.72;99558.47;1627764;84;21047;-67
2022/06/17 02:35:02;;;;;;;16.67;7.03;;;;;;;15.97;69.76;99560.56;1670906;84;21036;-68
2022/06/17 02:37:31;;;;;;;11.43;7.67;;;;;;;16.01;69.54;99555.92;1670945;84;21111;-68
2022/06/17 02:40:02;;;;;;;17.92;7.65;;;;;;;16.06;69.69;99554.27;1671400;84;21813;-70
2022/06/17 02:42:35;;;;;;;11.28;7.25;;;;;;;16.08;69.78;99559.47;1679926;84;21117;-68
2022/06/17 02:45:22;;;;;;;14.05;7.85;;;;;;;16.14;69.79;99562.20;1679630;84;21549;-69
2022/06/17 02:47:50;;;;;;;12.98;7.47;;;;;;;16.17;69.58;99556.73;1682258;84;21633;-69
2022/06/17 02:50:22;;;;;;;18.85;9.10;;;;;;;16.13;69.36;99555.04;1681188;84;21043;-68
2022/06/17 02:52:49;;;;;;;16.60;7.80;;;;;;;16.12;69.65;99560.38;1712485;82;21953;-68
2022/06/17 02:55:31;;;;;;;13.53;7.62;;;;;;;16.13;69.90;99557.25;1712595;82;21082;-67
2022/06/17 02:58:34;;;;;;;18.70;8.10;;;;;;;16.18;69.72;99561.72;1714381;82;21069;-68
2022/06/17 03:01:02;;;;;;;20.55;9.05;;;;;;;16.25;69.37;99558.32;1715127;82;21106;-68
2022/06/17 03:03:28;;;;;;;17.92;8.98;;;;;;;16.30;69.09;99560.27;1715986;82;21027;-68
2022/06/17 03:05:57;;;;;;;20.15;9.05;;;;;;;16.35;69.03;99559.75;1677946;84;21197;-68
2022/06/17 03:08:29;;;;;;;16.82;9.20;;;;;;;16.40;68.86;99549.75;1678878;84;21071;-68
2022/06/17 03:10:59;;;;;;;21.35;9.95;;;;;;;16.43;68.94;99549.84;1677407;84;21069;-69
2022/06/17 03:13:35;;;;;;;29.10;11.08;;;;;;;16.47;69.22;99549.13;1679151;84;21076;-68
2022/06/17 03:16:05;;;;;;;26.23;12.23;;;;;;;16.46;68.87;99552.51;1677954;84;21037;-67
2022/06/17 03:18:34;;;;;;;27.45;11.68;;;;;;;16.48;69.13;99555.71;1677738;84;21267;-69
2022/06/17 03:21:02;;;;;;;25.35;12.82;;;;;;;16.50;69.17;99553.96;1680843;84;21066;-68
2022/06/17 03:23:46;;;;;;;29.05;12.28;;;;;;;16.51;69.35;99554.98;1679753;84;21564;-69
2022/06/17 03:26:16;;;;;;;19.15;10.10;;;;;;;16.55;69.45;99557.86;1653848;85;21099;-67
2022/06/17 03:28:45;;;;;;;24.85;10.63;;;;;;;16.58;69.26;99557.73;1706992;82;21125;-67
2022/06/17 03:31:37;;;;;;;24.65;11.33;;;;;;;16.60;69.35;99558.98;1713305;82;21152;-66
2022/06/17 03:34:16;;;;;;;25.88;10.80;;;;;;;16.61;69.20;99549.48;1712648;82;21067;-68
2022/06/17 03:36:50;;;;;;;22.05;10.05;;;;;;;16.65;69.43;99553.14;1712620;82;21611;-67
2022/06/17 03:39:31;;;;;;;25.23;10.32;;;;;;;16.73;69.88;99551.92;1712196;82;21021;-68
2022/06/17 03:42:05;;;;;;;20.88;11.38;;;;;;;16.79;70.22;99555.46;1713583;82;21543;-68
2022/06/17 03:44:38;;;;;;;26.37;10.43;;;;;;;16.88;69.88;99554.45;1730512;81;21070;-67
2022/06/17 03:47:13;;;;;;;23.10;12.35;;;;;;;16.96;69.67;99552.63;1693205;83;21060;-68
2022/06/17 03:49:56;;;;;;;38.17;18.45;;;;;;;17.06;69.16;99551.28;1674149;82;20993;-66
2022/06/17 03:52:48;;;;;;;42.53;19.52;;;;;;;17.15;68.88;99550.50;1719683;81;21095;-67
2022/06/17 03:55:18;;;;;;;77.30;37.73;;;;;;;17.24;69.02;99552.50;1722648;81;21052;-67
2022/06/17 03:57:47;;;;;;;152.80;67.72;;;;;;;17.34;68.36;99554.48;1726929;81;21198;-66
2022/06/17 04:00:19;;;;;;;178.90;82.45;;;;;;;17.38;68.38;99550.59;1724374;81;21031;-67
2022/06/17 04:02:50;;;;;;;134.03;63.35;;;;;;;17.43;68.72;99548.70;1721398;81;21091;-68
2022/06/17 04:05:17;;;;;;;102.50;50.17;;;;;;;17.48;68.38;99553.97;1723474;81;21088;-66
2022/06/17 04:07:44;;;;;;;77.58;38.33;;;;;;;17.53;68.51;99546.72;1703899;83;21135;-67
2022/06/17 04:10:16;;;;;;;53.78;25.37;;;;;;;17.57;68.10;99543.41;1725329;81;21983;-66
2022/06/17 04:12:47;;;;;;;35.03;17.47;;;;;;;17.64;67.55;99548.31;1722429;81;21084;-68
2022/06/17 04:15:59;;;;;;;24.45;11.63;;;;;;;17.72;66.89;99543.12;1720623;81;21119;-66
2022/06/17 04:18:26;;;;;;;22.62;10.72;;;;;;;17.79;66.13;99541.05;1688433;83;21036;-68
2022/06/17 04:20:55;;;;;;;14.35;6.40;;;;;;;17.88;66.09;99545.80;1689319;83;21161;-67
2022/06/17 04:23:33;;;;;;;13.78;5.85;;;;;;;17.93;65.53;99548.86;1689231;83;21146;-67
2022/06/17 04:26:20;;;;;;;12.18;5.97;;;;;;;17.98;65.44;99543.59;1687705;83;21016;-67
2022/06/17 04:28:52;;;;;;;17.17;8.03;;;;;;;18.03;65.30;99543.86;1673524;84;21111;-67
2022/06/17 04:31:26;;;;;;;14.85;7.72;;;;;;;18.05;65.46;99540.12;1671929;84;21570;-67
2022/06/17 04:34:05;;;;;;;11.43;6.45;;;;;;;18.06;65.01;99544.51;1686686;83;21586;-67
2022/06/17 04:36:44;;;;;;;19.45;8.70;;;;;;;18.10;64.80;99539.81;1676094;84;21201;-68
2022/06/17 04:39:31;;;;;;;22.25;8.53;;;;;;;18.16;64.45;99539.74;1673681;83;21016;-68
2022/06/17 04:42:09;;;;;;;15.15;7.28;;;;;;;18.23;64.14;99542.67;1671318;84;21050;-67
2022/06/17 04:44:40;;;;;;;9.13;5.78;;;;;;;18.31;63.91;99539.98;1683548;84;21115;-67
2022/06/17 04:47:19;;;;;;;8.90;4.53;;;;;;;18.38;63.13;99544.29;1650840;84;21004;-67
2022/06/17 04:50:04;;;;;;;16.25;5.58;;;;;;;18.41;61.03;99540.75;1679512;84;21582;-67
2022/06/17 04:52:41;;;;;;;10.32;4.53;;;;;;;18.44;59.98;99544.18;1675406;84;21568;-67
2022/06/17 04:55:29;;;;;;;17.02;5.55;;;;;;;18.46;59.93;99543.22;1672931;84;21110;-68
2022/06/17 04:58:06;;;;;;;9.58;4.85;;;;;;;18.52;60.03;99540.12;1656830;84;21043;-66
2022/06/17 05:00:33;;;;;;;8.85;4.90;;;;;;;18.54;60.30;99536.37;1679465;84;21090;-68
2022/06/17 05:03:01;;;;;;;15.70;6.05;;;;;;;18.58;60.71;99536.64;1676372;84;21247;-67
2022/06/17 05:05:36;;;;;;;12.78;5.78;;;;;;;18.61;61.14;99535.88;1673727;84;21044;-68
2022/06/17 05:08:13;;;;;;;14.55;6.47;;;;;;;18.64;60.53;99537.71;1671400;84;21092;-68
2022/06/17 05:10:49;;;;;;;9.75;4.90;;;;;;;18.69;60.51;99536.00;1675398;84;21575;-67
2022/06/17 05:13:21;;;;;;;8.05;5.12;;;;;;;18.75;59.64;99535.10;1655517;84;21123;-68
2022/06/17 05:15:50;;;;;;;8.08;4.22;;;;;;;18.76;58.92;99531.12;1676937;84;21090;-67
2022/06/17 05:18:17;;;;;;;8.78;4.62;;;;;;;18.82;58.97;99527.63;1674528;84;21528;-66
2022/06/17 05:20:46;;;;;;;12.53;3.30;;;;;;;18.93;59.06;99531.16;1676775;84;21071;-66
2022/06/17 05:23:15;;;;;;;6.72;2.90;;;;;;;19.04;57.87;99529.92;1675517;84;21382;-65
2022/06/17 05:25:48;;;;;;;4.70;2.17;;;;;;;19.13;57.82;99529.07;1674925;84;21109;-67
2022/06/17 05:28:19;;;;;;;11.43;3.87;;;;;;;19.28;56.99;99527.84;1677662;84;21238;-68
2022/06/17 05:30:54;;;;;;;9.68;3.92;;;;;;;19.41;55.97;99527.84;1679306;84;21630;-66
2022/06/17 05:33:21;;;;;;;9.57;4.17;;;;;;;19.55;55.18;99529.19;1687557;83;21047;-67
2022/06/17 05:35:50;;;;;;;5.03;3.00;;;;;;;19.67;54.68;99519.74;1712405;82;21158;-66
2022/06/17 05:38:17;;;;;;;4.75;2.72;;;;;;;19.80;53.88;99516.08;1707790;82;21104;-68
2022/06/17 05:40:45;;;;;;;4.30;2.50;;;;;;;19.92;53.11;99520.00;1710316;83;21557;-67
2022/06/17 05:43:14;;;;;;;3.50;1.90;;;;;;;20.06;52.35;99517.94;1729137;81;21102;-67
2022/06/17 05:45:42;;;;;;;3.65;1.82;;;;;;;20.21;52.17;99518.67;1701735;82;21060;-67
2022/06/17 05:48:17;;;;;;;4.85;2.15;;;;;;;20.33;51.51;99515.59;1709748;82;21840;-66
2022/06/17 05:50:48;;;;;;;5.97;2.00;;;;;;;20.45;50.61;99520.08;1678360;84;21055;-66
2022/06/17 05:53:33;;;;;;;5.85;2.12;;;;;;;20.56;49.94;99522.94;1674018;84;21545;-67
2022/06/17 05:56:19;;;;;;;4.95;2.12;;;;;;;20.70;49.40;99518.63;1683134;84;21146;-65
2022/06/17 05:58:48;;;;;;;3.80;1.98;;;;;;;20.82;50.54;99515.52;1738678;81;21481;-66
2022/06/17 06:01:15;;;;;;;4.55;2.00;;;;;;;20.94;50.14;99520.60;1740019;81;21047;-66
2022/06/17 06:03:42;;;;;;;5.47;2.22;;;;;;;21.03;49.58;99516.25;1717659;82;21004;-66
2022/06/17 06:06:09;;;;;;;3.33;2.08;;;;;;;21.14;49.05;99521.11;1739966;81;21202;-66
2022/06/17 06:08:36;;;;;;;6.45;2.27;;;;;;;21.22;48.98;99512.16;1737554;81;21019;-67
2022/06/17 06:11:06;;;;;;;4.53;1.70;;;;;;;21.28;48.78;99514.77;1740689;81;21087;-67
2022/06/17 06:13:36;;;;;;;4.87;1.72;;;;;;;21.35;48.90;99523.80;1738206;81;21039;-67
2022/06/17 06:16:04;;;;;;;5.50;2.08;;;;;;;21.39;48.20;99519.03;1744204;81;21011;-67
2022/06/17 06:18:37;;;;;;;4.67;1.80;;;;;;;21.44;48.41;99517.25;1732057;81;21031;-67
2022/06/17 06:21:06;;;;;;;7.95;2.15;;;;;;;21.50;48.08;99517.65;1710545;82;21586;-66
2022/06/17 06:23:36;;;;;;;3.47;2.02;;;;;;;21.57;48.28;99517.68;1714933;82;21012;-66
2022/06/17 06:26:05;;;;;;;4.35;1.90;;;;;;;21.63;47.90;99516.08;1717274;82;21142;-67
2022/06/17 06:28:34;;;;;;;4.25;2.12;;;;;;;21.72;48.30;99517.70;1717271;82;21157;-68
2022/06/17 06:31:30;;;;;;;5.05;1.85;;;;;;;21.80;48.73;99522.19;1680211;84;21654;-67
2022/06/17 06:34:00;;;;;;;6.78;2.60;;;;;;;21.86;47.86;99514.97;1711755;82;21039;-66
2022/06/17 06:36:30;;;;;;;4.15;2.25;;;;;;;21.94;47.10;99502.38;1714465;82;21043;-67
2022/06/17 06:38:59;;;;;;;8.68;2.27;;;;;;;21.98;46.58;99502.57;1734959;81;21555;-68
2022/06/17 06:41:26;;;;;;;5.00;1.52;;;;;;;22.02;47.27;99503.98;1733915;81;21566;-66
2022/06/17 06:43:53;;;;;;;4.72;1.57;;;;;;;22.07;45.97;99500.78;1673221;83;21554;-67
2022/06/17 06:46:24;;;;;;;4.22;1.60;;;;;;;22.12;45.70;99498.98;1721760;82;21001;-67
2022/06/17 06:48:50;;;;;;;2.47;1.70;;;;;;;22.18;45.76;99499.98;1729104;82;21505;-65
2022/06/17 06:51:19;;;;;;;6.83;1.60;;;;;;;22.26;45.93;99502.98;1727348;82;21047;-67
2022/06/17 06:53:48;;;;;;;3.22;1.57;;;;;;;22.32;44.29;99499.16;1704766;83;21068;-65
2022/06/17 06:56:14;;;;;;;3.30;1.45;;;;;;;22.36;44.26;99500.78;1654743;85;21125;-66
2022/06/17 06:58:41;;;;;;;3.08;1.70;;;;;;;22.41;44.22;99495.36;1715070;81;21068;-66
2022/06/17 07:01:08;;;;;;;10.45;1.75;;;;;;;22.45;45.32;99496.14;1693968;83;21041;-69
2022/06/17 07:03:36;;;;;;;6.10;1.90;;;;;;;22.52;45.79;99495.33;1684829;84;21068;-66
2022/06/17 07:06:04;;;;;;;1.82;1.12;;;;;;;22.60;45.90;99492.70;1685543;84;20991;-66
2022/06/17 07:08:35;;;;;;;3.35;1.32;;;;;;;22.70;45.45;99496.75;1698015;83;21533;-67
2022/06/17 07:11:05;;;;;;;5.17;1.37;;;;;;;22.82;42.86;99501.14;1724776;81;21016;-67
2022/06/17 07:13:31;;;;;;;5.30;1.47;;;;;;;22.90;41.31;99500.50;1688762;84;21007;-67
2022/06/17 07:16:00;;;;;;;2.80;1.30;;;;;;;22.96;41.14;99503.09;1685690;84;21020;-66
2022/06/17 07:18:30;;;;;;;4.35;1.40;;;;;;;23.05;40.49;99502.66;1693495;84;21096;-66
2022/06/17 07:21:00;;;;;;;2.62;1.35;;;;;;;23.12;41.10;99503.83;1699361;83;21160;-66
2022/06/17 07:23:37;;;;;;;6.95;1.57;;;;;;;23.15;39.56;99501.02;1727670;81;20993;-66
2022/06/17 07:26:14;;;;;;;5.93;1.40;;;;;;;23.03;40.47;99500.86;1686174;84;20996;-66
2022/06/17 07:28:40;;;;;;;3.87;1.10;;;;;;;23.07;40.47;99500.84;1665489;83;20997;-67
2022/06/17 07:31:10;;;;;;;2.40;1.22;;;;;;;23.14;41.05;99498.02;1726381;81;21671;-68
2022/06/17 07:33:36;;;;;;;4.90;1.22;;;;;;;23.21;40.28;99502.21;1731838;81;21158;-67
2022/06/17 07:36:04;;;;;;;70.15;3.77;;;;;;;23.19;39.00;99498.19;1714002;82;21054;-66
2022/06/17 07:41:25;;;;;;;3.45;1.85;;;;;;;23.17;40.19;99498.60;1728888;82;21072;-65
2022/06/17 07:43:52;;;;;;;4.60;0.90;;;;;;;23.22;40.97;99507.20;1688395;84;21067;-65
2022/06/17 07:46:22;;;;;;;3.95;1.02;;;;;;;23.31;41.00;99501.16;1701990;83;21105;-64
2022/06/17 07:48:50;;;;;;;3.40;0.90;;;;;;;23.39;39.55;99502.72;1714722;82;22202;-66
2022/06/17 07:51:18;;;;;;;5.83;1.50;;;;;;;23.50;40.27;99501.30;1702878;82;21478;-67
2022/06/17 07:53:46;;;;;;;1.47;0.90;;;;;;;23.63;38.25;99505.84;1715023;82;21059;-67
2022/06/17 07:56:15;;;;;;;2.05;1.12;;;;;;;23.74;38.43;99510.00;1718595;81;21039;-67
2022/06/17 07:58:45;;;;;;;7.75;1.30;;;;;;;23.83;37.49;99511.73;1706842;82;21538;-67
2022/06/17 08:01:13;;;;;;;4.47;1.00;;;;;;;23.89;37.00;99509.30;1700525;83;21023;-67
2022/06/17 08:03:40;;;;;;;4.03;1.30;;;;;;;23.97;37.52;99509.25;1711749;82;21070;-65
2022/06/17 08:06:11;;;;;;;2.40;1.20;;;;;;;24.02;36.67;99506.00;1715114;82;21064;-67
2022/06/17 08:08:41;;;;;;;1.75;0.93;;;;;;;24.03;36.83;99509.80;1711599;82;21070;-68
2022/06/17 08:11:09;;;;;;;1.40;0.95;;;;;;;24.07;37.04;99496.50;1707628;83;21147;-68
2022/06/17 08:13:36;;;;;;;2.75;0.95;;;;;;;24.15;36.55;99498.66;1744638;81;21063;-67
2022/06/17 08:16:08;;;;;;;5.55;1.62;;;;;;;24.22;35.55;99496.42;1751320;81;21033;-66
2022/06/17 08:18:36;;;;;;;3.60;1.12;;;;;;;24.28;36.70;99496.16;1745181;81;21663;-67
2022/06/17 08:21:05;;;;;;;10.18;1.05;;;;;;;24.29;36.42;99499.16;1724034;81;21027;-67
2022/06/17 08:23:32;;;;;;;6.30;1.15;;;;;;;24.23;36.66;99499.42;1759436;81;21116;-67
2022/06/17 08:25:59;;;;;;;2.22;1.20;;;;;;;24.10;35.76;99494.08;1759698;81;21000;-66
2022/06/17 08:28:26;;;;;;;3.42;1.10;;;;;;;24.06;35.87;99499.13;1754359;81;21099;-65
2022/06/17 08:30:56;;;;;;;2.35;1.15;;;;;;;24.07;36.11;99489.46;1749606;81;21003;-68
2022/06/17 08:33:29;;;;;;;3.17;1.10;;;;;;;24.14;36.18;99492.05;1751556;81;21000;-67
2022/06/17 08:36:01;;;;;;;4.78;1.12;;;;;;;24.24;36.10;99498.20;1758750;81;21143;-66
2022/06/17 08:38:31;;;;;;;4.80;1.35;;;;;;;24.37;35.69;99490.06;1745273;81;21037;-67
2022/06/17 08:40:59;;;;;;;7.42;1.05;;;;;;;24.53;34.89;99488.08;1756828;81;21071;-67
2022/06/17 08:44:11;;;;;;;4.20;1.05;;;;;;;24.70;34.88;99485.52;1753273;81;21024;-67
2022/06/17 08:46:50;;;;;;;5.30;1.07;;;;;;;24.85;33.87;99490.98;1742340;82;21059;-67
2022/06/17 08:49:41;;;;;;;1.70;1.05;;;;;;;24.99;33.77;99493.66;1742828;82;21491;-67
2022/06/17 08:52:13;;;;;;;4.00;1.10;;;;;;;25.13;34.59;99497.55;1726408;82;21147;-69
2022/06/17 08:55:07;;;;;;;2.45;1.22;;;;;;;25.27;34.41;99490.91;1700370;83;21520;-67
2022/06/17 08:57:51;;;;;;;2.15;1.07;;;;;;;25.38;33.66;99499.23;1717839;82;21041;-66
2022/06/17 09:00:20;;;;;;;2.33;1.00;;;;;;;25.40;33.12;99495.39;1717504;82;21123;-67
2022/06/17 09:03:21;;;;;;;4.20;1.75;;;;;;;25.32;33.16;99481.21;1723753;81;21112;-67
2022/06/17 09:06:05;;;;;;;1.50;1.12;;;;;;;25.28;33.77;99482.03;1723465;81;21004;-66
2022/06/17 09:08:53;;;;;;;3.60;1.22;;;;;;;25.29;33.31;99484.25;1680932;82;21108;-67
2022/06/17 09:11:25;;;;;;;1.45;1.20;;;;;;;25.26;33.60;99484.50;1720369;82;21017;-67
2022/06/17 09:14:19;;;;;;;2.02;1.10;;;;;;;25.14;34.02;99468.95;1702802;82;21096;-68
2022/06/17 09:17:28;;;;;;;7.58;1.75;;;;;;;24.87;34.78;99476.66;1723077;82;21546;-66
2022/06/17 09:19:59;;;;;;;5.80;3.58;;;;;;;24.78;34.96;99472.95;1724098;82;21048;-66
2022/06/17 09:22:28;;;;;;;14.35;5.60;;;;;;;24.82;34.14;99470.10;1696993;83;21048;-66
2022/06/17 09:25:02;;;;;;;60.03;26.65;;;;;;;24.78;34.23;99477.78;1687186;83;22076;-67
2022/06/17 09:27:37;;;;;;;9.25;4.58;;;;;;;24.85;34.44;99472.67;1727771;82;21060;-68
2022/06/17 09:30:20;;;;;;;7.80;2.20;;;;;;;24.95;34.17;99474.60;1672257;84;21205;-66
2022/06/17 09:33:01;;;;;;;3.22;1.52;;;;;;;25.06;33.97;99480.09;1689980;84;21134;-66
2022/06/17 09:36:00;;;;;;;2.05;1.20;;;;;;;25.21;33.80;99482.14;1697246;83;21008;-68
2022/06/17 09:38:40;;;;;;;2.55;1.05;;;;;;;25.33;34.12;99482.80;1678942;84;21309;-66
2022/06/17 09:41:45;;;;;;;2.65;1.20;;;;;;;25.43;33.62;99473.40;1686211;84;21066;-66
2022/06/17 09:44:36;;;;;;;4.92;1.10;;;;;;;25.51;33.04;99472.67;1716219;81;21176;-67
2022/06/17 09:47:31;;;;;;;2.62;0.98;;;;;;;25.60;33.00;99473.56;1753036;81;21525;-65
2022/06/17 09:50:32;;;;;;;2.83;1.07;;;;;;;25.69;32.31;99475.25;1674891;82;21071;-66
2022/06/17 09:53:03;;;;;;;2.47;1.20;;;;;;;25.80;33.37;99465.83;1699855;83;21027;-65
2022/06/17 09:55:38;;;;;;;3.65;1.20;;;;;;;26.00;33.35;99470.95;1753559;81;21091;-66
2022/06/17 09:58:19;;;;;;;2.40;1.02;;;;;;;26.19;31.80;99470.64;1750956;81;21108;-65
2022/06/17 10:00:50;;;;;;;2.47;1.15;;;;;;;26.25;31.32;99464.70;1741026;81;21592;-66
2022/06/17 10:03:30;;;;;;;7.67;1.52;;;;;;;26.27;31.49;99460.04;1747366;81;21043;-68
2022/06/17 10:06:51;;;;;;;1.57;0.90;;;;;;;26.32;31.00;99459.55;1748987;81;21036;-67
2022/06/17 10:09:54;;;;;;;5.40;1.02;;;;;;;26.37;31.15;99457.03;1741298;81;21051;-68
2022/06/17 10:12:58;;;;;;;2.85;1.40;;;;;;;26.51;31.77;99455.81;1730172;81;21482;-66
2022/06/17 10:19:11;;;;;;;2.98;1.20;;;;;;;26.48;30.91;99444.14;1756800;81;21574;-67
2022/06/17 10:21:53;;;;;;;4.85;1.30;;;;;;;26.39;31.94;99451.59;1758275;81;21016;-68
2022/06/17 10:24:39;;;;;;;4.25;1.17;;;;;;;26.22;30.86;99456.47;1754607;81;21075;-68
2022/06/17 10:27:44;;;;;;;5.12;1.30;;;;;;;26.15;32.03;99449.56;1741240;81;21137;-65
2022/06/17 10:30:21;;;;;;;3.83;1.10;;;;;;;26.11;32.00;99445.98;1758780;81;21520;-66
2022/06/17 10:32:50;;;;;;;2.50;0.95;;;;;;;26.00;32.98;99442.73;1751897;81;21067;-66
2022/06/17 10:35:27;;;;;;;3.95;1.22;;;;;;;26.06;34.62;99442.25;1727837;81;21086;-68
2022/06/17 10:37:55;;;;;;;1.85;1.00;;;;;;;26.21;35.00;99439.97;1754865;81;20996;-67
2022/06/17 10:40:23;;;;;;;1.98;0.70;;;;;;;26.34;33.26;99433.91;1759118;81;21091;-67
2022/06/17 10:42:49;;;;;;;2.83;1.30;;;;;;;26.45;31.78;99435.13;1757708;81;20988;-66
2022/06/17 10:45:16;;;;;;;2.08;1.15;;;;;;;26.54;31.94;99428.92;1745701;81;21049;-67
2022/06/17 10:47:56;;;;;;;3.52;1.35;;;;;;;26.53;31.54;99430.13;1719342;82;21059;-66
2022/06/17 10:50:28;;;;;;;2.08;0.95;;;;;;;26.45;31.11;99437.95;1727361;82;21029;-67
2022/06/17 10:53:24;;;;;;;2.53;1.30;;;;;;;26.32;30.74;99437.77;1741188;82;21123;-66
2022/06/17 10:56:00;;;;;;;2.52;0.93;;;;;;;26.20;30.59;99432.13;1738719;82;21051;-67
2022/06/17 10:58:33;;;;;;;1.47;1.00;;;;;;;26.14;31.06;99425.37;1734330;82;21015;-65
2022/06/17 11:01:06;;;;;;;2.62;1.05;;;;;;;26.09;32.39;99430.09;1740235;82;20980;-67
2022/06/17 11:03:39;;;;;;;3.33;1.10;;;;;;;25.96;32.77;99434.95;1738646;82;21467;-66
2022/06/17 11:06:17;;;;;;;2.25;1.22;;;;;;;25.86;32.60;99432.47;1734873;82;21080;-66
2022/06/17 11:08:57;;;;;;;2.60;0.80;;;;;;;25.82;32.36;99423.89;1740115;82;21013;-67
2022/06/17 11:14:42;;;;;;;1.70;1.22;;;;;;;25.90;33.54;99419.72;1742543;81;21064;-66
2022/06/17 11:17:40;;;;;;;3.58;1.12;;;;;;;25.87;34.79;99427.03;1685985;84;21094;-67
2022/06/17 11:20:25;;;;;;;6.28;1.50;;;;;;;25.82;35.83;99429.53;1701840;83;21620;-67
2022/06/17 11:23:01;;;;;;;2.33;1.10;;;;;;;25.62;35.95;99428.19;1722138;82;21466;-66
2022/06/17 11:25:37;;;;;;;5.25;1.07;;;;;;;25.44;35.31;99420.00;1690002;84;21801;-67
2022/06/17 11:28:25;;;;;;;4.42;1.82;;;;;;;25.35;35.40;99423.98;1702248;83;21072;-65
2022/06/17 11:31:08;;;;;;;4.65;1.57;;;;;;;25.21;36.02;99425.78;1680867;84;21131;-67
2022/06/17 11:33:57;;;;;;;7.33;1.92;;;;;;;25.21;36.24;99415.11;1700180;83;21269;-68
2022/06/17 11:36:33;;;;;;;2.75;1.80;;;;;;;25.36;37.51;99415.70;1690927;84;21091;-68
2022/06/17 11:39:33;;;;;;;3.70;1.62;;;;;;;25.51;36.52;99417.69;1684283;83;21133;-67
2022/06/17 11:41:56;;;;;;;5.50;1.80;;;;;;;25.68;37.99;99415.84;1699905;83;21008;-66
2022/06/17 11:44:24;;;;;;;2.35;1.62;;;;;;;25.88;37.17;99408.06;1697212;82;21095;-68
2022/06/17 11:47:00;;;;;;;2.95;1.45;;;;;;;26.07;36.84;99417.02;1715794;82;21486;-67
2022/06/17 11:49:36;;;;;;;3.87;1.98;;;;;;;26.23;36.63;99413.52;1742371;81;21547;-67
2022/06/17 11:52:08;;;;;;;4.47;2.15;;;;;;;26.35;36.19;99414.95;1700096;83;21485;-65
2022/06/17 11:54:41;;;;;;;4.80;2.70;;;;;;;26.46;35.83;99409.89;1753794;81;21098;-67
2022/06/17 11:57:18;;;;;;;10.75;3.47;;;;;;;26.33;35.06;99409.73;1711325;81;21099;-65
2022/06/17 11:59:49;;;;;;;9.85;2.40;;;;;;;26.18;35.79;99412.00;1757287;81;21780;-67
2022/06/17 12:02:16;;;;;;;3.85;2.52;;;;;;;26.12;35.46;99417.33;1753607;81;21539;-67
2022/06/17 12:04:50;;;;;;;7.83;3.12;;;;;;;26.13;35.17;99409.06;1729611;81;21019;-68
2022/06/17 12:07:44;;;;;;;6.00;2.45;;;;;;;26.11;35.84;99400.23;1753479;81;21070;-67
2022/06/17 12:10:49;;;;;;;6.35;2.65;;;;;;;26.12;35.05;99391.13;1757394;81;21048;-68
2022/06/17 12:13:34;;;;;;;7.60;2.65;;;;;;;26.10;35.73;99396.42;1757949;81;21520;-66
2022/06/17 12:16:39;;;;;;;4.15;2.50;;;;;;;25.94;36.04;99394.27;1753813;81;20936;-67
2022/06/17 12:19:14;;;;;;;7.62;2.45;;;;;;;25.82;35.72;99395.68;1757224;81;21054;-67